Weather History for Camdenton, MO

Change the Weather History Date:

Sunday, January 27, 2013

  Actual Average (KAIZ) Record (KAIZ)
Temperature  
Mean Temperature 46 °F -  
Max Temperature 57 °F 40 °F 66 °F (2002)
Min Temperature 35 °F 22 °F 8 °F (2014)
Degree Days  
Heating Degree Days 19    
Moisture  
Dew Point 41 °F    
Average Humidity 83    
Maximum Humidity 100    
Minimum Humidity 49    
Precipitation  
Precipitation 0.04 in - - ()
Sea Level Pressure  
Sea Level Pressure 30.01 in    
Wind  
Wind Speed 14 mph (SSE)    
Max Wind Speed 21 mph    
Max Gust Speed 28 mph    
Visibility 10 miles    
Events Rain    
Averages and records for this station are not official NWS values.
T = Trace of Precipitation, MM = Missing Value Source: NWS Daily Summary

Daily Weather History Graph

Daily Weather History Graph

Search for Another Location

Airport:

Trip Planner

Search our weather history database for the weather conditions in past years. The results will help you decide how hot, cold, wet, or windy it might be!

Date:

Astronomy

Jan. 27, 2013 Rise Set
Actual Time 7:18 AM CST 5:28 PM CST
Civil Twilight 6:50 AM CST 5:56 PM CST
Nautical Twilight 6:19 AM CST 6:28 PM CST
Astronomical Twilight 5:48 AM CST 6:59 PM CST
Moon 6:21 PM CST (1/27) 7:13 AM CST (1/27)
Length of Visible Light 11h 05m
Length of Day
10h 09m
Full, 100% of the Moon is Illuminated
Jan 27
Full
Feb 3
Last Quarter
Feb 10
New
Feb 17
First Quarter
Feb 25
Full

Hourly Weather History & Observations

Time (CST) Temp. Windchill Dew Point Humidity Pressure Visibility Wind Dir Wind Speed Gust Speed Precip Events Conditions
12:15 AM 42.8 °F 36.2 °F 24.8 °F 49% 30.17 in 10.0 mi SE 12.7 mph - N/A   Overcast
12:35 AM 42.8 °F 35.1 °F 24.8 °F 49% 30.16 in 10.0 mi SE 16.1 mph 23.0 mph N/A   Scattered Clouds
12:55 AM 42.8 °F 35.1 °F 26.6 °F 53% 30.17 in 10.0 mi SE 16.1 mph 21.9 mph N/A   Mostly Cloudy
1:15 AM 42.8 °F 34.8 °F 26.6 °F 53% 30.16 in 10.0 mi SE 17.3 mph 21.9 mph N/A   Mostly Cloudy
1:35 AM 42.8 °F 35.8 °F 26.6 °F 53% 30.16 in 10.0 mi SE 13.8 mph 19.6 mph N/A   Mostly Cloudy
1:55 AM 41.0 °F 34.3 °F 28.4 °F 61% 30.16 in 10.0 mi SE 11.5 mph 17.3 mph N/A Rain Light Rain
2:15 AM 39.2 °F 31.2 °F 32.0 °F 75% 30.15 in 10.0 mi ESE 13.8 mph 17.3 mph N/A Rain Light Rain
2:35 AM 37.4 °F 30.3 °F 32.0 °F 81% 30.15 in 10.0 mi ESE 10.4 mph - N/A Rain Light Rain
2:55 AM 37.4 °F 30.8 °F 32.0 °F 81% 30.15 in 10.0 mi ESE 9.2 mph - N/A Rain Light Rain
3:15 AM 37.4 °F 29.8 °F 32.0 °F 81% 30.15 in 7.0 mi SE 11.5 mph - 0.01 in Rain Light Rain
3:35 AM 37.4 °F 29.3 °F 32.0 °F 81% 30.15 in 10.0 mi SE 12.7 mph - 0.02 in Rain Light Rain
3:55 AM 37.4 °F 29.3 °F 33.8 °F 87% 30.13 in 10.0 mi SE 12.7 mph 16.1 mph 0.02 in Rain Light Rain
4:15 AM 35.6 °F 27.1 °F 33.8 °F 93% 30.12 in 7.0 mi SE 12.7 mph - N/A Rain Light Rain
4:35 AM 35.6 °F 25.9 °F 33.8 °F 93% 30.11 in 7.0 mi SE 16.1 mph - 0.01 in Rain Light Rain
4:55 AM 35.6 °F 25.9 °F 35.6 °F 100% 30.07 in 7.0 mi ESE 16.1 mph 21.9 mph 0.02 in Rain Light Rain
5:15 AM 37.4 °F 28.2 °F 35.6 °F 93% 30.08 in 7.0 mi SE 16.1 mph 23.0 mph N/A   Drizzle
5:35 AM 37.4 °F 27.8 °F 35.6 °F 93% 30.08 in 10.0 mi SE 17.3 mph - N/A Rain Light Rain
5:55 AM 37.4 °F 28.9 °F 35.6 °F 93% 30.09 in 10.0 mi SE 13.8 mph - N/A   Light Drizzle
6:15 AM 37.4 °F 28.5 °F 35.6 °F 93% 30.08 in 10.0 mi SE 15.0 mph 19.6 mph N/A Rain Light Rain
6:35 AM 37.4 °F 28.5 °F 35.6 °F 93% 30.08 in 10.0 mi SE 15.0 mph - N/A   Overcast
6:55 AM 37.4 °F 28.5 °F 35.6 °F 93% 30.08 in 10.0 mi SE 15.0 mph 19.6 mph N/A   Overcast
7:15 AM 39.2 °F 30.5 °F 35.6 °F 87% 30.07 in 10.0 mi SE 16.1 mph 21.9 mph N/A   Overcast
7:35 AM 41.0 °F 33.1 °F 35.6 °F 81% 30.07 in 10.0 mi SE 15.0 mph 24.2 mph N/A   Overcast
7:55 AM 41.0 °F 32.2 °F 35.6 °F 81% 30.07 in 10.0 mi SE 18.4 mph 25.3 mph N/A   Overcast
8:15 AM 41.0 °F 32.8 °F 35.6 °F 81% 30.07 in 10.0 mi SE 16.1 mph 23.0 mph N/A   Overcast
8:35 AM 41.0 °F 32.5 °F 35.6 °F 81% 30.07 in 10.0 mi SE 17.3 mph - N/A Rain Light Rain
8:55 AM 41.0 °F 33.1 °F 37.4 °F 87% 30.07 in 10.0 mi SE 15.0 mph 24.2 mph N/A   Light Drizzle
9:15 AM 41.0 °F 31.6 °F 37.4 °F 87% 30.05 in 10.0 mi SE 20.7 mph 24.2 mph N/A Rain Light Rain
9:35 AM 41.0 °F 32.8 °F 37.4 °F 87% 30.05 in 10.0 mi SE 16.1 mph 24.2 mph N/A Rain Light Rain
9:55 AM 42.8 °F 34.5 °F 37.4 °F 81% 30.05 in 10.0 mi SE 18.4 mph 23.0 mph N/A   Light Drizzle
10:15 AM 42.8 °F 34.8 °F 39.2 °F 87% 30.05 in 10.0 mi SE 17.3 mph 23.0 mph N/A   Overcast
10:35 AM 42.8 °F 35.4 °F 41.0 °F 93% 30.04 in 10.0 mi SE 15.0 mph 20.7 mph N/A   Light Drizzle
10:55 AM 42.8 °F 35.4 °F 41.0 °F 93% 30.04 in 10.0 mi SE 15.0 mph 20.7 mph N/A   Overcast
11:15 AM 44.6 °F 38.1 °F 41.0 °F 87% 30.02 in 7.0 mi SE 13.8 mph - N/A   Light Drizzle
11:35 AM 44.6 °F 38.4 °F 42.8 °F 93% 30.02 in 7.0 mi SE 12.7 mph 20.7 mph N/A   Overcast
11:55 AM 46.4 °F 40.4 °F 42.8 °F 87% 30.00 in 7.0 mi SSE 13.8 mph 19.6 mph N/A   Overcast
12:15 PM 46.4 °F 39.2 °F 42.8 °F 87% 29.98 in 7.0 mi SSE 18.4 mph 27.6 mph N/A   Mostly Cloudy
12:35 PM 46.4 °F 39.8 °F 44.6 °F 93% 29.97 in 10.0 mi SSE 16.1 mph 23.0 mph N/A   Light Drizzle
12:55 PM 48.2 °F - 44.6 °F 87% 29.95 in 10.0 mi SSE 18.4 mph 25.3 mph N/A   Scattered Clouds
1:15 PM 50.0 °F - 44.6 °F 82% 29.94 in 10.0 mi SSE 16.1 mph 23.0 mph N/A   Mostly Cloudy
1:35 PM 50.0 °F - 42.8 °F 76% 29.94 in 10.0 mi SSE 16.1 mph 24.2 mph N/A   Mostly Cloudy
1:55 PM 51.8 °F - 42.8 °F 71% 29.92 in 10.0 mi SSE 15.0 mph 23.0 mph N/A   Mostly Cloudy
2:15 PM 51.8 °F - 42.8 °F 71% 29.91 in 10.0 mi SSE 15.0 mph 20.7 mph N/A Rain Light Rain
2:35 PM 51.8 °F - 44.6 °F 76% 29.91 in 10.0 mi SSE 12.7 mph 21.9 mph N/A Rain Light Rain
2:55 PM 53.6 °F - 44.6 °F 72% 29.91 in 10.0 mi South 18.4 mph 27.6 mph N/A   Mostly Cloudy
3:15 PM 53.6 °F - 46.4 °F 77% 29.90 in 10.0 mi SSE 13.8 mph 21.9 mph N/A Rain Light Rain
3:35 PM 53.6 °F - 46.4 °F 77% 29.90 in 10.0 mi SSE 19.6 mph 24.2 mph N/A Rain Light Rain
3:55 PM 53.6 °F - 46.4 °F 77% 29.90 in 10.0 mi South 19.6 mph 25.3 mph N/A   Scattered Clouds
4:15 PM 53.6 °F - 46.4 °F 77% 29.90 in 10.0 mi SSE 16.1 mph 21.9 mph N/A   Clear
4:35 PM 51.8 °F - 46.4 °F 82% 29.90 in 10.0 mi SSE 16.1 mph 21.9 mph N/A   Clear
4:55 PM 51.8 °F - 46.4 °F 82% 29.89 in 10.0 mi SSE 16.1 mph 23.0 mph N/A   Clear
5:15 PM 51.8 °F - 46.4 °F 82% 29.89 in 10.0 mi SSE 15.0 mph 20.7 mph N/A   Clear
5:35 PM 51.8 °F - 46.4 °F 82% 29.89 in 10.0 mi SSE 11.5 mph - N/A   Clear
5:55 PM 51.8 °F - 48.2 °F 88% 29.91 in 10.0 mi SSE 10.4 mph - N/A   Clear
6:15 PM 51.8 °F - 48.2 °F 88% 29.91 in 10.0 mi SSE 10.4 mph - N/A   Scattered Clouds
6:35 PM 51.8 °F - 48.2 °F 88% 29.91 in 10.0 mi SSE 11.5 mph - N/A   Mostly Cloudy
6:55 PM 51.8 °F - 48.2 °F 88% 29.92 in 10.0 mi SSE 15.0 mph - N/A   Scattered Clouds
7:15 PM 51.8 °F - 50.0 °F 94% 29.92 in 10.0 mi South 16.1 mph 23.0 mph N/A   Mostly Cloudy
7:35 PM 53.6 °F - 50.0 °F 88% 29.92 in 10.0 mi South 10.4 mph 21.9 mph N/A   Overcast
7:55 PM 53.6 °F - 50.0 °F 88% 29.92 in 10.0 mi South 12.7 mph 19.6 mph N/A   Overcast
8:15 PM 53.6 °F - 50.0 °F 88% 29.92 in 10.0 mi SSE 17.3 mph 20.7 mph N/A   Overcast
8:35 PM 53.6 °F - 50.0 °F 88% 29.91 in 10.0 mi SSE 13.8 mph 21.9 mph N/A   Overcast
8:55 PM 55.4 °F - 51.8 °F 88% 29.91 in 10.0 mi SSE 13.8 mph - N/A   Overcast
9:15 PM 55.4 °F - 51.8 °F 88% 29.92 in 10.0 mi South 11.5 mph 18.4 mph N/A   Overcast
9:35 PM 55.4 °F - 51.8 °F 88% 29.92 in 10.0 mi SSE 9.2 mph 16.1 mph N/A   Overcast
9:55 PM 55.4 °F - 51.8 °F 88% 29.93 in 10.0 mi SSE 8.1 mph - N/A   Overcast
10:15 PM 55.4 °F - 51.8 °F 88% 29.93 in 10.0 mi South 9.2 mph - N/A   Overcast
10:35 PM 57.2 °F - 51.8 °F 82% 29.93 in 10.0 mi South 11.5 mph 19.6 mph N/A   Overcast
10:55 PM 57.2 °F - 51.8 °F 82% 29.93 in 10.0 mi South 11.5 mph 17.3 mph N/A   Overcast
11:15 PM 57.2 °F - 51.8 °F 82% 29.93 in 10.0 mi South 10.4 mph 18.4 mph N/A   Overcast
11:35 PM 57.2 °F - 51.8 °F 82% 29.93 in 10.0 mi South 10.4 mph 17.3 mph N/A   Overcast
11:55 PM 57.2 °F - 53.6 °F 88% 29.92 in 10.0 mi South 10.4 mph - N/A   Overcast